Time;durP1;ratioP1;P1;durP2;ratioP2;P2;SDS_P1;SDS_P2;PMS_P1;PMS_P2;Temp;Humidity;BMP_temperature;BMP_pressure;BME280_temperature;BME280_humidity;BME280_pressure;Samples;Min_cycle;Max_cycle;Signal;HPM_P1;HPM_P2
2022/01/02 00:01:03;;;;;;;20.90;9.33;;;2.10;99.90;;;;;;5136303;27;20043;-61
2022/01/02 00:03:34;;;;;;;22.73;9.55;;;2.10;99.90;;;;;;5136344;27;20047;-61
2022/01/02 00:06:02;;;;;;;17.98;8.63;;;2.10;99.90;;;;;;5135973;27;20043;-61
2022/01/02 00:08:31;;;;;;;17.17;8.70;;;2.10;99.90;;;;;;5136063;27;20043;-61
2022/01/02 00:10:59;;;;;;;20.58;9.52;;;2.00;99.90;;;;;;5135869;27;20491;-61
2022/01/02 00:13:31;;;;;;;;;;;2.00;99.90;;;;;;5136467;27;20047;-61
2022/01/02 00:16:06;;;;;;;19.00;8.55;;;1.90;99.90;;;;;;5130430;27;19972;-61
2022/01/02 00:18:37;;;;;;;16.70;8.60;;;1.90;99.90;;;;;;5130158;27;20410;-61
2022/01/02 00:21:10;;;;;;;19.42;9.45;;;1.90;99.90;;;;;;5135967;27;20043;-61
2022/01/02 00:23:49;;;;;;;22.48;8.70;;;1.90;99.90;;;;;;5136036;27;20051;-61
2022/01/02 00:26:19;;;;;;;19.63;8.55;;;1.90;99.90;;;;;;5135348;27;20062;-60
2022/01/02 00:28:46;;;;;;;17.48;8.68;;;1.90;99.90;;;;;;5122879;27;20058;-60
2022/01/02 00:31:14;;;;;;;21.77;9.38;;;1.90;99.90;;;;;;5114968;28;20498;-61
2022/01/02 00:33:42;;;;;;;17.15;8.43;;;1.90;99.90;;;;;;5115012;28;20051;-61
2022/01/02 00:36:09;;;;;;;15.82;8.38;;;1.80;99.90;;;;;;5114472;28;20044;-61
2022/01/02 00:38:38;;;;;;;15.10;7.75;;;1.80;99.90;;;;;;5115022;28;20384;-60
2022/01/02 00:41:06;;;;;;;18.63;8.40;;;1.70;99.90;;;;;;5115029;28;20035;-60
2022/01/02 00:44:03;;;;;;;20.27;8.07;;;1.70;99.90;;;;;;5114784;28;20453;-61
2022/01/02 00:46:32;;;;;;;17.58;7.72;;;1.70;99.90;;;;;;5055038;28;20044;-61
2022/01/02 00:49:04;;;;;;;19.17;7.95;;;1.70;99.90;;;;;;5096390;28;20043;-61
2022/01/02 00:51:46;;;;;;;16.30;8.05;;;1.70;99.90;;;;;;5113654;27;20059;-60
2022/01/02 00:54:17;;;;;;;14.95;7.97;;;1.70;99.90;;;;;;5113374;28;20097;-60
2022/01/02 00:56:46;;;;;;;15.65;7.47;;;1.60;99.90;;;;;;5095726;28;20101;-61
2022/01/02 00:59:25;;;;;;;19.25;7.90;;;1.60;99.90;;;;;;5094945;28;20035;-61
2022/01/02 01:01:59;;;;;;;16.40;8.35;;;1.60;99.90;;;;;;5105533;27;20039;-61
2022/01/02 01:04:29;;;;;;;15.18;7.50;;;1.60;99.90;;;;;;5128207;27;20574;-61
2022/01/02 01:07:02;;;;;;;20.70;8.50;;;1.60;99.90;;;;;;5134479;27;20043;-62
2022/01/02 01:09:30;;;;;;;15.73;7.65;;;1.60;99.90;;;;;;5116484;27;20134;-61
2022/01/02 01:12:03;;;;;;;18.77;8.52;;;1.60;99.90;;;;;;5116304;27;20567;-61
2022/01/02 01:14:30;;;;;;;16.80;7.63;;;1.60;99.90;;;;;;5110500;28;20051;-61
2022/01/02 01:16:58;;;;;;;17.17;7.95;;;1.50;99.90;;;;;;5113973;28;20491;-61
2022/01/02 01:19:25;;;;;;;21.63;9.18;;;1.50;99.90;;;;;;5096031;28;20039;-61
2022/01/02 01:21:53;;;;;;;21.00;9.25;;;1.50;99.90;;;;;;5115238;27;20436;-61
2022/01/02 01:24:20;;;;;;;17.90;7.63;;;1.50;99.90;;;;;;5107559;27;20035;-61
2022/01/02 01:26:53;;;;;;;16.10;7.38;;;1.40;99.90;;;;;;5115803;27;20067;-61
2022/01/02 01:29:20;;;;;;;18.17;7.28;;;1.30;99.90;;;;;;5134893;27;20051;-61
2022/01/02 01:31:47;;;;;;;12.13;5.72;;;1.20;99.90;;;;;;5134406;27;20039;-61
2022/01/02 01:34:14;;;;;;;12.23;5.78;;;1.20;99.90;;;;;;5134433;27;20039;-61
2022/01/02 01:36:41;;;;;;;12.13;5.90;;;1.20;99.90;;;;;;5115429;27;20047;-61
2022/01/02 01:39:08;;;;;;;12.43;6.75;;;1.20;99.90;;;;;;5108716;27;20498;-60
2022/01/02 01:41:38;;;;;;;20.17;8.48;;;1.30;99.90;;;;;;5106071;28;20128;-61
2022/01/02 01:44:21;;;;;;;18.67;8.00;;;1.30;99.90;;;;;;5114957;27;20039;-61
2022/01/02 01:46:51;;;;;;;12.60;6.80;;;1.30;99.90;;;;;;5111172;27;20043;-61
2022/01/02 01:49:26;;;;;;;14.88;7.13;;;1.40;99.90;;;;;;5095850;28;20089;-61
2022/01/02 01:51:54;;;;;;;17.05;7.68;;;1.40;99.90;;;;;;5097475;27;20062;-62
2022/01/02 01:54:23;;;;;;;17.80;8.20;;;1.40;99.90;;;;;;5094969;28;20051;-62
2022/01/02 01:56:51;;;;;;;14.90;6.82;;;1.40;99.90;;;;;;5104960;27;20050;-61
2022/01/02 01:59:22;;;;;;;13.30;6.63;;;1.40;99.90;;;;;;5108703;27;20099;-62
2022/01/02 02:01:51;;;;;;;16.40;6.70;;;1.40;99.90;;;;;;5115287;27;20047;-61
2022/01/02 02:04:19;;;;;;;14.05;6.82;;;1.30;99.90;;;;;;5115515;27;20091;-62
2022/01/02 02:06:46;;;;;;;17.30;7.22;;;1.30;99.90;;;;;;5114999;27;20100;-62
2022/01/02 02:09:15;;;;;;;15.23;7.63;;;1.40;99.90;;;;;;5115369;27;20050;-61
2022/01/02 02:11:44;;;;;;;17.77;7.65;;;1.40;99.90;;;;;;5115164;27;20039;-61
2022/01/02 02:14:13;;;;;;;14.32;7.80;;;1.40;99.90;;;;;;5115140;27;20503;-61
2022/01/02 02:16:40;;;;;;;19.60;8.50;;;1.40;99.90;;;;;;5114159;27;20085;-62
2022/01/02 02:19:07;;;;;;;16.52;7.35;;;1.40;99.90;;;;;;5115076;27;20088;-62
2022/01/02 02:21:37;;;;;;;14.63;7.05;;;1.40;99.90;;;;;;5115204;27;20046;-62
2022/01/02 02:24:07;;;;;;;16.90;7.22;;;1.40;99.90;;;;;;5115158;27;20077;-61
2022/01/02 02:26:37;;;;;;;16.02;7.38;;;1.40;99.90;;;;;;5114321;27;20050;-62
2022/01/02 02:29:05;;;;;;;16.33;7.70;;;1.40;99.90;;;;;;5115029;27;20522;-61
2022/01/02 02:31:34;;;;;;;11.90;6.03;;;1.50;99.90;;;;;;5114780;27;20039;-61
2022/01/02 02:34:02;;;;;;;13.15;6.45;;;1.50;99.90;;;;;;5114894;27;20065;-61
2022/01/02 02:36:28;;;;;;;15.45;7.03;;;1.30;99.90;;;;;;5114400;27;20513;-61
2022/01/02 02:38:55;;;;;;;12.52;5.93;;;1.20;99.90;;;;;;5133053;27;20039;-62
2022/01/02 02:41:23;;;;;;;14.48;6.68;;;1.10;99.90;;;;;;5114801;27;20130;-62
2022/01/02 02:43:58;;;;;;;;;;;1.10;99.90;;;;;;5115241;27;20039;-62
2022/01/02 02:49:15;;;;;;;13.25;7.07;;;1.10;99.90;;;;;;5114858;27;20043;-62
2022/01/02 02:52:06;;;;;;;14.13;7.28;;;1.10;99.90;;;;;;5132597;27;20092;-61
2022/01/02 02:54:36;;;;;;;13.65;6.43;;;1.10;99.90;;;;;;5114492;27;20043;-62
2022/01/02 02:57:11;;;;;;;;;;;1.00;99.90;;;;;;5133043;27;20067;-62
2022/01/02 02:59:38;;;;;;;10.38;5.57;;;0.90;99.90;;;;;;5114571;27;20042;-61
2022/01/02 03:02:07;;;;;;;15.00;7.25;;;0.90;99.90;;;;;;5114504;27;20054;-62
2022/01/02 03:04:39;;;;;;;11.15;5.78;;;0.90;99.90;;;;;;5114557;27;20517;-61
2022/01/02 03:07:06;;;;;;;13.90;5.60;;;0.90;99.90;;;;;;5113898;27;20549;-62
2022/01/02 03:09:38;;;;;;;13.93;7.18;;;0.90;99.90;;;;;;5114193;27;20065;-62
2022/01/02 03:12:09;;;;;;;12.65;6.72;;;0.90;99.90;;;;;;5114321;27;20050;-62
2022/01/02 03:14:39;;;;;;;16.52;7.47;;;1.00;99.90;;;;;;5114327;27;20043;-62
2022/01/02 03:17:06;;;;;;;17.13;7.38;;;1.00;99.90;;;;;;5113954;28;20080;-61
2022/01/02 03:19:34;;;;;;;15.32;7.05;;;1.10;99.90;;;;;;5113961;28;20525;-61
2022/01/02 03:22:01;;;;;;;11.10;6.30;;;1.10;99.90;;;;;;5114249;27;20095;-61
2022/01/02 03:24:28;;;;;;;15.18;6.07;;;1.10;99.90;;;;;;5114088;27;20051;-62
2022/01/02 03:26:55;;;;;;;10.25;5.18;;;1.10;99.90;;;;;;5113745;28;20503;-62
2022/01/02 03:29:23;;;;;;;;;;;1.10;99.90;;;;;;5114548;28;20392;-62
2022/01/02 03:31:51;;;;;;;12.15;4.93;;;1.10;99.90;;;;;;5113942;27;19920;-61
2022/01/02 03:34:19;;;;;;;12.15;5.43;;;0.90;99.90;;;;;;5113853;28;20043;-61
2022/01/02 03:36:46;;;;;;;8.63;5.20;;;0.70;99.90;;;;;;5113770;28;20039;-61
2022/01/02 03:39:13;;;;;;;12.18;5.90;;;0.70;99.90;;;;;;5114067;28;20044;-61
2022/01/02 03:41:40;;;;;;;12.38;5.97;;;0.80;99.90;;;;;;5114072;28;20100;-61
2022/01/02 03:44:07;;;;;;;12.95;5.72;;;0.80;99.90;;;;;;5132285;28;20078;-61
2022/01/02 03:46:33;;;;;;;17.08;6.05;;;0.80;99.90;;;;;;5113620;28;20046;-61
2022/01/02 03:49:01;;;;;;;33.38;8.75;;;0.70;99.90;;;;;;5113876;28;20049;-62
2022/01/02 03:51:28;;;;;;;29.98;9.68;;;0.70;99.90;;;;;;5113879;28;20066;-61
2022/01/02 03:53:55;;;;;;;22.30;8.52;;;0.70;99.90;;;;;;5113759;28;20084;-61
2022/01/02 03:56:24;;;;;;;14.85;6.80;;;0.70;99.90;;;;;;5113518;28;20495;-61
2022/01/02 03:58:52;;;;;;;16.02;6.72;;;0.70;99.90;;;;;;5113928;28;20067;-61
2022/01/02 04:01:19;;;;;;;19.60;7.38;;;0.70;99.90;;;;;;5113699;28;20039;-61
2022/01/02 04:03:46;;;;;;;17.55;6.88;;;0.70;99.90;;;;;;5132316;28;20039;-62
2022/01/02 04:06:13;;;;;;;15.23;6.63;;;0.80;99.90;;;;;;5113381;28;20055;-62
2022/01/02 04:08:40;;;;;;;14.70;6.85;;;0.80;99.90;;;;;;5113673;28;20438;-61
2022/01/02 04:11:07;;;;;;;13.52;6.80;;;0.80;99.90;;;;;;5113788;28;20495;-61
2022/01/02 04:13:34;;;;;;;;;;;0.80;99.90;;;;;;5114138;28;20126;-61
2022/01/02 04:16:01;;;;;;;14.07;6.50;;;0.90;99.90;;;;;;5113204;28;19927;-61
2022/01/02 04:18:29;;;;;;;9.85;4.82;;;0.90;99.90;;;;;;5113757;28;20054;-61
2022/01/02 04:20:56;;;;;;;11.10;4.50;;;0.60;99.90;;;;;;5113548;28;20507;-61
2022/01/02 04:23:23;;;;;;;12.18;5.32;;;0.40;99.90;;;;;;5113665;28;20039;-61
2022/01/02 04:25:50;;;;;;;13.65;6.22;;;0.30;99.90;;;;;;5113215;28;20089;-61
2022/01/02 04:28:17;;;;;;;12.40;5.68;;;0.30;99.90;;;;;;5113298;28;20051;-61
2022/01/02 04:30:44;;;;;;;10.20;5.00;;;0.20;99.90;;;;;;5113468;28;20523;-61
2022/01/02 04:33:11;;;;;;;;;;;0.20;99.90;;;;;;5114052;28;20039;-62
2022/01/02 04:35:39;;;;;;;13.48;5.90;;;0.30;99.90;;;;;;5109173;22;19924;-61
2022/01/02 04:38:06;;;;;;;12.40;6.47;;;0.40;99.90;;;;;;5098133;28;20056;-61
2022/01/02 04:40:33;;;;;;;13.10;6.50;;;0.50;99.90;;;;;;5074473;28;20051;-61
2022/01/02 04:43:03;;;;;;;13.90;6.30;;;0.50;99.90;;;;;;5076430;28;20044;-61
2022/01/02 04:45:31;;;;;;;10.63;5.43;;;0.60;99.90;;;;;;5076046;28;20074;-61
2022/01/02 04:47:58;;;;;;;13.57;6.03;;;0.70;99.90;;;;;;5076404;28;20044;-61
2022/01/02 04:50:25;;;;;;;18.00;6.47;;;0.50;99.90;;;;;;5094369;28;20105;-61
2022/01/02 04:52:52;;;;;;;14.23;6.90;;;0.50;99.90;;;;;;5076238;28;20040;-61
2022/01/02 04:55:19;;;;;;;12.38;6.05;;;0.50;99.90;;;;;;5093943;28;20051;-61
2022/01/02 04:57:47;;;;;;;13.60;5.95;;;0.50;99.90;;;;;;5076154;28;20575;-61
2022/01/02 05:00:14;;;;;;;11.32;5.00;;;0.40;99.90;;;;;;5094384;28;20040;-61
2022/01/02 05:02:41;;;;;;;11.73;5.60;;;0.30;99.90;;;;;;5075974;28;20089;-61
2022/01/02 05:05:09;;;;;;;11.88;5.80;;;0.40;99.90;;;;;;5075850;28;20058;-61
2022/01/02 05:07:36;;;;;;;15.35;6.03;;;0.40;99.90;;;;;;5094021;28;20078;-61
2022/01/02 05:10:05;;;;;;;12.48;6.50;;;0.40;99.90;;;;;;5075784;28;20044;-61
2022/01/02 05:12:32;;;;;;;14.35;6.82;;;0.50;99.90;;;;;;5075793;28;20068;-61
2022/01/02 05:14:59;;;;;;;17.17;7.55;;;0.50;99.90;;;;;;5075928;28;20040;-61
2022/01/02 05:17:27;;;;;;;11.02;5.60;;;0.50;99.90;;;;;;5075424;28;20458;-61
2022/01/02 05:19:53;;;;;;;10.98;5.53;;;0.60;99.90;;;;;;5075697;28;20085;-61
2022/01/02 05:22:21;;;;;;;11.10;5.28;;;0.50;99.90;;;;;;5093642;28;20527;-61
2022/01/02 05:24:48;;;;;;;16.30;6.05;;;0.50;99.90;;;;;;5093928;28;20113;-61
2022/01/02 05:27:15;;;;;;;10.35;5.72;;;0.60;99.90;;;;;;5075211;28;20048;-61
2022/01/02 05:29:42;;;;;;;9.68;5.18;;;0.60;99.90;;;;;;5075598;28;20054;-61
2022/01/02 05:32:09;;;;;;;13.07;5.78;;;0.70;99.90;;;;;;5075518;28;20492;-61
2022/01/02 05:34:36;;;;;;;13.95;5.50;;;0.70;99.90;;;;;;5075365;28;20105;-60
2022/01/02 05:37:05;;;;;;;12.38;5.85;;;0.80;99.90;;;;;;5074895;28;20047;-61
2022/01/02 05:39:34;;;;;;;12.85;5.22;;;0.80;99.90;;;;;;5075473;28;20431;-61
2022/01/02 05:42:01;;;;;;;11.20;5.13;;;0.70;99.90;;;;;;5093525;28;20492;-61
2022/01/02 05:44:30;;;;;;;8.32;4.95;;;0.70;99.90;;;;;;5075056;28;20139;-61
2022/01/02 05:46:58;;;;;;;11.18;5.65;;;0.70;99.90;;;;;;5074678;28;20032;-61
2022/01/02 05:49:25;;;;;;;;;;;0.70;99.90;;;;;;5075519;28;20090;-61
2022/01/02 05:51:53;;;;;;;8.23;3.58;;;0.70;99.90;;;;;;5090972;28;20300;-61
2022/01/02 05:54:21;;;;;;;10.15;5.00;;;0.70;99.90;;;;;;5074982;28;20124;-61
2022/01/02 05:56:50;;;;;;;;;;;0.60;99.90;;;;;;5075134;28;20036;-61
2022/01/02 05:59:18;;;;;;;10.75;4.82;;;0.60;99.90;;;;;;5074941;28;19974;-61
2022/01/02 06:01:45;;;;;;;15.70;6.35;;;0.60;99.90;;;;;;5074877;28;20040;-61
2022/01/02 06:04:12;;;;;;;11.15;5.65;;;0.60;99.90;;;;;;5074885;28;20040;-61
2022/01/02 06:06:39;;;;;;;10.45;5.28;;;0.60;99.90;;;;;;5074309;28;20047;-61
2022/01/02 06:09:06;;;;;;;;;;;0.60;99.90;;;;;;5075268;28;20587;-61
2022/01/02 06:11:37;;;;;;;11.93;5.75;;;0.60;99.90;;;;;;5091744;28;20018;-61
2022/01/02 06:14:04;;;;;;;13.02;5.88;;;0.60;99.90;;;;;;5092756;28;20051;-61
2022/01/02 06:16:32;;;;;;;13.63;6.10;;;0.60;99.90;;;;;;5073971;28;20052;-61
2022/01/02 06:19:00;;;;;;;19.05;6.82;;;0.50;99.90;;;;;;5074722;28;20074;-61
2022/01/02 06:21:28;;;;;;;14.52;6.97;;;0.60;99.90;;;;;;5074481;28;20040;-61
2022/01/02 06:23:55;;;;;;;14.18;6.18;;;0.60;99.90;;;;;;5092718;28;20038;-61
2022/01/02 06:26:21;;;;;;;17.95;7.20;;;0.60;99.90;;;;;;5092252;28;20497;-61
2022/01/02 06:28:49;;;;;;;;;;;0.50;99.90;;;;;;5074649;28;20043;-61
2022/01/02 06:31:16;;;;;;;14.52;6.57;;;0.50;99.90;;;;;;5072684;28;19924;-61
2022/01/02 06:33:47;;;;;;;10.75;6.10;;;0.40;99.90;;;;;;5062347;28;20555;-60
2022/01/02 06:36:14;;;;;;;13.23;6.80;;;0.40;99.90;;;;;;5053639;28;20044;-61
2022/01/02 06:38:42;;;;;;;10.48;5.68;;;0.30;99.90;;;;;;5054284;28;20037;-62
2022/01/02 06:41:11;;;;;;;12.63;6.40;;;0.30;99.90;;;;;;5070641;28;20086;-61
2022/01/02 06:43:40;;;;;;;12.95;6.05;;;0.30;99.90;;;;;;5054078;28;20044;-61
2022/01/02 06:46:07;;;;;;;13.80;6.70;;;0.30;99.90;;;;;;5053383;28;20036;-61
2022/01/02 06:48:34;;;;;;;;;;;0.30;99.90;;;;;;5054553;28;20072;-61
2022/01/02 06:51:01;;;;;;;21.08;9.48;;;0.20;99.90;;;;;;5054036;28;19978;-61
2022/01/02 06:53:28;;;;;;;13.95;6.93;;;0.30;99.90;;;;;;5053901;28;20575;-61
2022/01/02 06:55:55;;;;;;;12.95;7.53;;;0.30;99.90;;;;;;5053536;28;20562;-61
2022/01/02 06:58:22;;;;;;;15.73;7.60;;;0.30;99.90;;;;;;5053848;28;20390;-61
2022/01/02 07:00:51;;;;;;;16.08;7.07;;;0.20;99.90;;;;;;5053989;28;20044;-61
2022/01/02 07:03:19;;;;;;;13.27;6.03;;;0.30;99.90;;;;;;5053325;28;20040;-61
2022/01/02 07:05:46;;;;;;;14.02;6.45;;;0.30;99.90;;;;;;5053280;28;20041;-61
2022/01/02 07:08:14;;;;;;;16.85;6.30;;;0.30;99.90;;;;;;5070551;28;20424;-61
2022/01/02 07:10:41;;;;;;;13.73;6.78;;;0.30;99.90;;;;;;5053637;28;20056;-60
2022/01/02 07:13:08;;;;;;;17.38;7.50;;;0.30;99.90;;;;;;5071546;28;20489;-61
2022/01/02 07:15:35;;;;;;;13.60;6.93;;;0.40;99.90;;;;;;5071171;28;20056;-61
2022/01/02 07:18:02;;;;;;;10.05;5.65;;;0.40;99.90;;;;;;5071662;28;20519;-61
2022/01/02 07:20:29;;;;;;;10.02;5.75;;;0.50;99.90;;;;;;5071368;28;20040;-61
2022/01/02 07:22:56;;;;;;;9.15;5.53;;;0.50;99.90;;;;;;5071392;28;20045;-60
2022/01/02 07:25:23;;;;;;;10.13;5.70;;;0.60;99.90;;;;;;5071105;28;20105;-61
2022/01/02 07:27:50;;;;;;;13.70;5.90;;;0.60;99.90;;;;;;5071547;28;20489;-61
2022/01/02 07:30:17;;;;;;;22.00;6.22;;;0.60;99.90;;;;;;5071359;28;20036;-61
2022/01/02 07:32:46;;;;;;;14.32;6.72;;;0.60;99.90;;;;;;5071525;28;20068;-60
2022/01/02 07:35:13;;;;;;;13.70;6.15;;;0.60;99.90;;;;;;5070841;28;20048;-61
2022/01/02 07:37:40;;;;;;;14.02;6.47;;;0.60;99.90;;;;;;5071250;28;20041;-61
2022/01/02 07:40:07;;;;;;;10.38;5.03;;;0.60;99.90;;;;;;5071407;28;20102;-61
2022/01/02 07:42:34;;;;;;;19.30;8.77;;;0.60;99.90;;;;;;5071162;28;20044;-61
2022/01/02 07:45:08;;;;;;;15.75;7.00;;;0.60;99.90;;;;;;5053190;28;20048;-61
2022/01/02 07:47:37;;;;;;;;;;;0.60;99.90;;;;;;5071644;28;20114;-61
2022/01/02 07:50:04;;;;;;;11.48;5.47;;;0.60;99.90;;;;;;5071191;28;19920;-61
2022/01/02 07:52:31;;;;;;;14.73;6.50;;;0.70;99.90;;;;;;5071217;28;20090;-60
2022/01/02 07:54:58;;;;;;;10.25;5.88;;;0.80;99.90;;;;;;5071055;28;20071;-61
2022/01/02 07:57:25;;;;;;;11.50;5.82;;;0.80;99.90;;;;;;5070854;28;20079;-61
2022/01/02 07:59:52;;;;;;;12.38;5.28;;;0.80;99.90;;;;;;5071288;28;20551;-61
2022/01/02 08:02:41;;;;;;;9.95;4.90;;;0.90;99.90;;;;;;5050890;28;20045;-61
2022/01/02 08:05:10;;;;;;;11.93;6.45;;;1.00;99.90;;;;;;5050779;28;20052;-61
2022/01/02 08:07:38;;;;;;;17.08;7.60;;;1.10;99.90;;;;;;5050949;28;20044;-61
2022/01/02 08:10:06;;;;;;;14.52;6.10;;;1.20;99.90;;;;;;5050936;28;20067;-61
2022/01/02 08:12:32;;;;;;;;;;;1.20;99.90;;;;;;5051445;28;20049;-61
2022/01/02 08:15:00;;;;;;;13.40;6.85;;;1.20;99.90;;;;;;5050877;28;19920;-61
2022/01/02 08:17:27;;;;;;;14.73;8.45;;;1.30;99.90;;;;;;5053679;28;20572;-61
2022/01/02 08:19:55;;;;;;;15.40;7.45;;;1.40;99.90;;;;;;5054899;28;20056;-60
2022/01/02 08:22:22;;;;;;;14.82;7.47;;;1.40;99.90;;;;;;5054753;28;20045;-61
2022/01/02 08:24:49;;;;;;;;;;;1.50;99.90;;;;;;5061873;28;20041;-61
2022/01/02 08:27:16;;;;;;;14.20;6.82;;;1.50;99.90;;;;;;5074276;28;19924;-60
2022/01/02 08:29:43;;;;;;;16.80;7.85;;;1.50;99.90;;;;;;5074539;28;20082;-61
2022/01/02 08:32:10;;;;;;;14.85;7.15;;;1.50;99.90;;;;;;5074428;28;20127;-61
2022/01/02 08:34:37;;;;;;;15.75;7.90;;;1.60;99.90;;;;;;5074266;28;20048;-61
2022/01/02 08:37:04;;;;;;;17.42;8.13;;;1.60;99.90;;;;;;5074114;28;20408;-61
2022/01/02 08:39:31;;;;;;;14.27;7.95;;;1.60;99.90;;;;;;5074184;28;20051;-61
2022/01/02 08:41:59;;;;;;;15.05;8.07;;;1.60;99.90;;;;;;5063346;28;20048;-61
2022/01/02 08:44:25;;;;;;;19.00;8.25;;;1.70;99.90;;;;;;5054029;28;20045;-61
2022/01/02 08:46:52;;;;;;;14.32;7.13;;;1.70;99.90;;;;;;5053743;28;20048;-61
2022/01/02 08:49:19;;;;;;;13.35;7.43;;;1.80;99.90;;;;;;5054229;28;20091;-61
2022/01/02 08:51:47;;;;;;;14.52;7.50;;;2.00;99.90;;;;;;5054138;28;20052;-61
2022/01/02 08:54:14;;;;;;;12.23;5.97;;;2.20;99.90;;;;;;5056307;28;20075;-59
2022/01/02 08:56:41;;;;;;;12.70;6.97;;;2.30;99.90;;;;;;5058618;28;20058;-59
2022/01/02 08:59:08;;;;;;;11.38;5.78;;;2.50;99.90;;;;;;5063800;28;20033;-59
2022/01/02 09:01:35;;;;;;;9.60;5.28;;;2.60;99.90;;;;;;5054496;28;20501;-61
2022/01/02 09:04:02;;;;;;;8.70;4.53;;;2.70;99.90;;;;;;5058957;28;20041;-61
2022/01/02 09:06:29;;;;;;;9.52;4.40;;;2.80;99.90;;;;;;5053264;28;20045;-61
2022/01/02 09:08:56;;;;;;;7.78;4.80;;;3.00;99.90;;;;;;5056566;28;20581;-61
2022/01/02 09:11:23;;;;;;;9.18;4.63;;;3.00;99.90;;;;;;5063851;28;20091;-58
2022/01/02 09:13:50;;;;;;;16.52;6.43;;;3.20;99.90;;;;;;5064001;28;20493;-59
2022/01/02 09:16:17;;;;;;;19.90;8.35;;;3.30;99.90;;;;;;5061846;28;20456;-61
2022/01/02 09:18:44;;;;;;;15.77;6.63;;;3.30;99.90;;;;;;5063710;28;20071;-61
2022/01/02 09:21:11;;;;;;;10.50;6.05;;;3.30;99.90;;;;;;5058754;28;20541;-61
2022/01/02 09:23:38;;;;;;;11.52;5.57;;;3.40;99.90;;;;;;5053513;28;20132;-61
2022/01/02 09:26:05;;;;;;;13.02;5.95;;;3.50;99.90;;;;;;5052680;28;20456;-59
2022/01/02 09:28:32;;;;;;;13.50;5.43;;;3.80;99.90;;;;;;5053454;28;20120;-59
2022/01/02 09:30:59;;;;;;;12.70;5.80;;;4.00;99.90;;;;;;5053250;28;20090;-59
2022/01/02 09:33:26;;;;;;;11.77;5.22;;;4.30;99.90;;;;;;5060847;28;20120;-59
2022/01/02 09:35:52;;;;;;;8.80;3.72;;;4.50;99.90;;;;;;5061251;28;20049;-59
2022/01/02 09:38:19;;;;;;;9.15;4.47;;;4.70;99.90;;;;;;5062992;28;20036;-59
2022/01/02 09:40:47;;;;;;;6.72;4.13;;;4.70;99.90;;;;;;5063516;28;20078;-59
2022/01/02 09:43:18;;;;;;;6.97;3.88;;;4.60;99.90;;;;;;5061797;28;20440;-61
2022/01/02 09:45:46;;;;;;;7.80;4.10;;;4.50;99.90;;;;;;5061597;28;20049;-62
2022/01/02 09:48:13;;;;;;;8.52;4.10;;;4.50;99.90;;;;;;5061790;28;20040;-59
2022/01/02 09:50:41;;;;;;;8.02;4.30;;;4.40;99.90;;;;;;5062453;28;20064;-59
2022/01/02 09:53:09;;;;;;;6.50;3.60;;;4.40;99.90;;;;;;5063403;28;20044;-62
2022/01/02 09:55:36;;;;;;;9.60;4.40;;;4.30;99.90;;;;;;5061428;28;20074;-59
2022/01/02 09:58:09;;;;;;;7.65;4.25;;;4.30;99.90;;;;;;5062008;28;20048;-60
2022/01/02 10:00:38;;;;;;;8.23;4.13;;;4.30;99.90;;;;;;5061780;28;20041;-59
2022/01/02 10:03:09;;;;;;;12.40;4.97;;;4.30;99.90;;;;;;5061555;28;20036;-60
2022/01/02 10:05:59;;;;;;;11.52;6.18;;;4.30;99.90;;;;;;5061181;28;20504;-59
2022/01/02 10:08:30;;;;;;;12.63;6.20;;;4.10;99.90;;;;;;5063164;28;20064;-59
2022/01/02 10:11:04;;;;;;;10.38;5.88;;;3.90;99.90;;;;;;5064486;28;20525;-59
2022/01/02 10:14:13;;;;;;;12.05;6.53;;;3.80;99.90;;;;;;5072381;28;20044;-59
2022/01/02 10:16:42;;;;;;;12.13;6.25;;;3.60;99.90;;;;;;5054738;28;20505;-59
2022/01/02 10:19:26;;;;;;;13.80;6.30;;;3.60;99.90;;;;;;5070997;28;20889;-59
2022/01/02 10:22:03;;;;;;;9.43;5.50;;;3.50;99.90;;;;;;5071049;28;20045;-59
2022/01/02 10:24:33;;;;;;;10.50;6.15;;;3.50;99.90;;;;;;5071799;28;20049;-59
2022/01/02 10:27:17;;;;;;;16.13;7.65;;;3.50;99.90;;;;;;5071821;28;20119;-59
2022/01/02 10:29:53;;;;;;;15.35;8.27;;;3.50;99.90;;;;;;5072292;28;20447;-59
2022/01/02 10:32:41;;;;;;;17.05;8.70;;;3.50;99.90;;;;;;5072345;28;20063;-59
2022/01/02 10:35:21;;;;;;;19.02;8.60;;;3.50;99.90;;;;;;5093043;22;20048;-62
2022/01/02 10:38:01;;;;;;;17.33;7.95;;;3.50;99.90;;;;;;5111932;28;20399;-61
2022/01/02 10:40:31;;;;;;;15.07;8.45;;;3.60;99.90;;;;;;5112524;28;20503;-60
2022/01/02 10:43:01;;;;;;;18.92;8.82;;;3.70;99.90;;;;;;5104466;28;20035;-63
2022/01/02 10:45:33;;;;;;;15.50;7.55;;;3.90;99.90;;;;;;5093175;28;20101;-60
2022/01/02 10:48:01;;;;;;;12.88;7.22;;;4.10;99.90;;;;;;5092236;28;20046;-63
2022/01/02 10:50:35;;;;;;;12.38;6.10;;;4.20;99.90;;;;;;5092243;28;20093;-62
2022/01/02 10:53:16;;;;;;;16.30;7.20;;;4.40;99.90;;;;;;5092142;28;20107;-63
2022/01/02 10:55:45;;;;;;;22.38;9.75;;;4.50;99.90;;;;;;5093857;28;20504;-62
2022/01/02 10:58:14;;;;;;;16.33;7.95;;;4.60;99.90;;;;;;5092030;28;20036;-62
2022/01/02 11:00:41;;;;;;;20.02;10.05;;;4.80;99.90;;;;;;5091985;28;20090;-62
2022/01/02 11:03:08;;;;;;;15.90;7.97;;;4.90;99.90;;;;;;5091955;28;20492;-62
2022/01/02 11:05:37;;;;;;;17.25;8.23;;;5.00;99.90;;;;;;5091227;28;20444;-62
2022/01/02 11:08:05;;;;;;;11.70;6.38;;;5.10;99.90;;;;;;5096113;28;20105;-62
2022/01/02 11:10:35;;;;;;;12.30;6.43;;;5.20;99.90;;;;;;5109246;28;20463;-62
2022/01/02 11:13:04;;;;;;;9.50;5.40;;;5.30;99.90;;;;;;5108063;28;20051;-62
2022/01/02 11:15:32;;;;;;;12.60;6.35;;;5.50;99.90;;;;;;5100998;28;20074;-62
2022/01/02 11:17:59;;;;;;;12.10;5.50;;;5.60;99.90;;;;;;5100316;28;20561;-62
2022/01/02 11:20:29;;;;;;;13.20;5.45;;;5.70;99.90;;;;;;5101930;28;20063;-62
2022/01/02 11:22:59;;;;;;;10.82;6.00;;;5.80;99.90;;;;;;5093975;28;20051;-62
2022/01/02 11:25:43;;;;;;;10.30;5.10;;;5.80;99.90;;;;;;5093932;28;20036;-62
2022/01/02 11:28:14;;;;;;;8.25;4.90;;;5.90;99.90;;;;;;5076603;28;20028;-62
2022/01/02 11:30:41;;;;;;;10.75;4.88;;;6.00;99.90;;;;;;5098717;28;20044;-62
2022/01/02 11:33:15;;;;;;;9.65;4.57;;;6.00;99.90;;;;;;5101183;28;20118;-62
2022/01/02 11:35:47;;;;;;;9.48;4.63;;;6.00;99.90;;;;;;5101701;28;20036;-62
2022/01/02 11:38:17;;;;;;;8.57;3.78;;;6.10;99.90;;;;;;5101975;28;20039;-62
2022/01/02 11:40:57;;;;;;;9.52;4.05;;;5.90;99.90;;;;;;5100342;28;20435;-62
2022/01/02 11:43:38;;;;;;;6.07;3.75;;;6.10;99.90;;;;;;5103997;28;20484;-62
2022/01/02 11:46:15;;;;;;;8.05;3.88;;;6.10;99.90;;;;;;5092467;28;20060;-62
2022/01/02 11:48:42;;;;;;;10.27;4.33;;;6.20;99.90;;;;;;5099896;28;20031;-62
2022/01/02 11:51:09;;;;;;;9.20;4.50;;;6.20;99.90;;;;;;5101088;28;20285;-61
2022/01/02 11:53:52;;;;;;;7.45;4.30;;;6.40;99.90;;;;;;5109929;28;20446;-61
2022/01/02 11:56:33;;;;;;;7.47;4.30;;;6.60;99.90;;;;;;5115131;28;20816;-61
2022/01/02 11:58:59;;;;;;;8.40;4.63;;;6.70;99.90;;;;;;5115719;28;20063;-62
2022/01/02 12:01:46;;;;;;;7.43;4.38;;;6.70;99.90;;;;;;5115806;28;20104;-62
2022/01/02 12:04:13;;;;;;;7.68;4.55;;;6.60;99.90;;;;;;5115597;28;20047;-62
2022/01/02 12:06:42;;;;;;;8.32;4.82;;;6.50;99.90;;;;;;5115146;28;20083;-61
2022/01/02 12:09:32;;;;;;;7.55;4.30;;;6.40;99.90;;;;;;5115718;28;20071;-62
2022/01/02 12:12:02;;;;;;;10.82;4.90;;;6.30;99.90;;;;;;5115654;28;20407;-62
2022/01/02 12:14:29;;;;;;;11.93;5.07;;;6.30;99.90;;;;;;5115482;28;20036;-61
2022/01/02 12:17:09;;;;;;;9.13;4.97;;;6.30;99.90;;;;;;5114832;28;20040;-62
2022/01/02 12:20:04;;;;;;;10.32;5.50;;;6.40;99.90;;;;;;5115628;28;20051;-61
2022/01/02 12:22:45;;;;;;;13.70;4.88;;;6.60;99.90;;;;;;5115273;28;20050;-62
2022/01/02 12:25:20;;;;;;;9.98;5.35;;;6.70;99.90;;;;;;5114978;28;20093;-62
2022/01/02 12:27:49;;;;;;;17.23;8.15;;;6.70;99.90;;;;;;5115457;28;20062;-61
2022/01/02 12:30:17;;;;;;;12.63;6.00;;;6.80;99.90;;;;;;5115414;28;20052;-62
2022/01/02 12:32:46;;;;;;;9.60;5.45;;;6.90;99.90;;;;;;5115297;28;20101;-62
2022/01/02 12:35:13;;;;;;;14.45;5.60;;;7.10;99.90;;;;;;5114832;28;20076;-61
2022/01/02 12:37:40;;;;;;;8.30;5.03;;;7.30;99.90;;;;;;5114920;28;20170;-61
2022/01/02 12:40:14;;;;;;;;;;;7.50;99.90;;;;;;5115641;28;20047;-62
2022/01/02 12:42:41;;;;;;;9.60;5.13;;;7.60;99.90;;;;;;5115124;28;19970;-62
2022/01/02 12:45:08;;;;;;;11.13;5.45;;;7.50;99.90;;;;;;5114837;28;20092;-61
2022/01/02 12:47:46;;;;;;;9.10;5.00;;;7.50;99.90;;;;;;5114769;28;20506;-62
2022/01/02 12:50:22;;;;;;;9.73;5.72;;;7.60;99.90;;;;;;5115118;28;20056;-62
2022/01/02 12:52:53;;;;;;;10.25;5.18;;;7.70;99.90;;;;;;5114732;28;20074;-62
2022/01/02 12:55:21;;;;;;;8.57;5.00;;;7.70;99.90;;;;;;5106432;28;20032;-62
2022/01/02 12:57:48;;;;;;;10.95;5.80;;;7.70;99.90;;;;;;5104933;28;20116;-62
2022/01/02 13:00:15;;;;;;;10.93;7.22;;;7.70;99.90;;;;;;5096422;28;20400;-62
2022/01/02 13:02:42;;;;;;;;;;;7.70;99.90;;;;;;5094719;28;20470;-61
2022/01/02 13:05:10;;;;;;;30.88;14.05;;;7.70;99.90;;;;;;5093997;28;20407;-60
2022/01/02 13:07:38;;;;;;;24.33;11.18;;;7.50;99.90;;;;;;5094095;28;20040;-62